sensor_id;sensor_type;location;lat;lon;timestamp;P1;durP1;ratioP1;P2;durP2;ratioP2
19830;SDS011;10076;52.008;4.708;2023-02-18T00:01:59;36.60;;;11.63;;
19830;SDS011;10076;52.008;4.708;2023-02-18T00:04:25;37.70;;;11.77;;
19830;SDS011;10076;52.008;4.708;2023-02-18T00:06:50;35.50;;;10.90;;
19830;SDS011;10076;52.008;4.708;2023-02-18T00:09:15;35.80;;;11.67;;
19830;SDS011;10076;52.008;4.708;2023-02-18T00:11:41;34.63;;;10.03;;
19830;SDS011;10076;52.008;4.708;2023-02-18T00:14:07;31.47;;;10.10;;
19830;SDS011;10076;52.008;4.708;2023-02-18T00:16:37;28.93;;;9.80;;
19830;SDS011;10076;52.008;4.708;2023-02-18T00:19:04;28.43;;;10.10;;
19830;SDS011;10076;52.008;4.708;2023-02-18T00:21:32;28.80;;;9.30;;
19830;SDS011;10076;52.008;4.708;2023-02-18T00:23:58;32.53;;;10.13;;
19830;SDS011;10076;52.008;4.708;2023-02-18T00:26:24;26.80;;;9.67;;
19830;SDS011;10076;52.008;4.708;2023-02-18T00:28:49;30.60;;;9.43;;
19830;SDS011;10076;52.008;4.708;2023-02-18T00:31:37;26.43;;;9.93;;
19830;SDS011;10076;52.008;4.708;2023-02-18T00:34:02;26.63;;;9.90;;
19830;SDS011;10076;52.008;4.708;2023-02-18T00:36:29;29.73;;;8.07;;
19830;SDS011;10076;52.008;4.708;2023-02-18T00:38:56;27.73;;;9.13;;
19830;SDS011;10076;52.008;4.708;2023-02-18T00:41:23;32.00;;;9.63;;
19830;SDS011;10076;52.008;4.708;2023-02-18T00:43:50;27.47;;;9.40;;
19830;SDS011;10076;52.008;4.708;2023-02-18T00:46:16;30.83;;;9.17;;
19830;SDS011;10076;52.008;4.708;2023-02-18T00:48:42;30.50;;;9.43;;
19830;SDS011;10076;52.008;4.708;2023-02-18T00:51:07;26.73;;;10.00;;
19830;SDS011;10076;52.008;4.708;2023-02-18T00:53:33;27.97;;;9.33;;
19830;SDS011;10076;52.008;4.708;2023-02-18T00:55:59;26.30;;;9.37;;
19830;SDS011;10076;52.008;4.708;2023-02-18T00:58:24;37.17;;;11.53;;
19830;SDS011;10076;52.008;4.708;2023-02-18T01:00:50;36.03;;;10.53;;
19830;SDS011;10076;52.008;4.708;2023-02-18T01:03:15;24.47;;;8.73;;
19830;SDS011;10076;52.008;4.708;2023-02-18T01:05:41;35.53;;;10.43;;
19830;SDS011;10076;52.008;4.708;2023-02-18T01:08:07;35.03;;;10.63;;
19830;SDS011;10076;52.008;4.708;2023-02-18T01:10:34;29.07;;;9.60;;
19830;SDS011;10076;52.008;4.708;2023-02-18T01:13:01;34.53;;;10.63;;
19830;SDS011;10076;52.008;4.708;2023-02-18T01:15:28;35.17;;;9.73;;
19830;SDS011;10076;52.008;4.708;2023-02-18T01:17:54;29.37;;;10.17;;
19830;SDS011;10076;52.008;4.708;2023-02-18T01:20:19;31.47;;;11.23;;
19830;SDS011;10076;52.008;4.708;2023-02-18T01:22:45;34.67;;;12.30;;
19830;SDS011;10076;52.008;4.708;2023-02-18T01:25:11;30.20;;;10.93;;
19830;SDS011;10076;52.008;4.708;2023-02-18T01:27:37;30.93;;;9.80;;
19830;SDS011;10076;52.008;4.708;2023-02-18T01:30:03;32.57;;;10.93;;
19830;SDS011;10076;52.008;4.708;2023-02-18T01:32:29;36.70;;;11.67;;
19830;SDS011;10076;52.008;4.708;2023-02-18T01:34:54;35.93;;;11.63;;
19830;SDS011;10076;52.008;4.708;2023-02-18T01:37:20;33.13;;;11.03;;
19830;SDS011;10076;52.008;4.708;2023-02-18T01:39:45;33.20;;;10.87;;
19830;SDS011;10076;52.008;4.708;2023-02-18T01:42:17;46.83;;;13.07;;
19830;SDS011;10076;52.008;4.708;2023-02-18T01:44:48;33.50;;;11.60;;
19830;SDS011;10076;52.008;4.708;2023-02-18T01:47:14;33.33;;;11.83;;
19830;SDS011;10076;52.008;4.708;2023-02-18T01:49:40;33.07;;;11.83;;
19830;SDS011;10076;52.008;4.708;2023-02-18T01:52:10;34.10;;;11.53;;
19830;SDS011;10076;52.008;4.708;2023-02-18T01:54:45;28.40;;;12.13;;
19830;SDS011;10076;52.008;4.708;2023-02-18T01:57:35;33.97;;;9.93;;
19830;SDS011;10076;52.008;4.708;2023-02-18T02:00:05;29.13;;;11.53;;
19830;SDS011;10076;52.008;4.708;2023-02-18T02:02:36;40.23;;;11.97;;
19830;SDS011;10076;52.008;4.708;2023-02-18T02:05:04;29.43;;;11.63;;
19830;SDS011;10076;52.008;4.708;2023-02-18T02:07:30;33.43;;;11.40;;
19830;SDS011;10076;52.008;4.708;2023-02-18T02:09:55;39.03;;;12.30;;
19830;SDS011;10076;52.008;4.708;2023-02-18T02:12:35;35.17;;;12.37;;
19830;SDS011;10076;52.008;4.708;2023-02-18T02:15:21;32.97;;;10.33;;
19830;SDS011;10076;52.008;4.708;2023-02-18T02:26:28;28.43;;;10.30;;
19830;SDS011;10076;52.008;4.708;2023-02-18T02:30:06;32.50;;;11.57;;
19830;SDS011;10076;52.008;4.708;2023-02-18T02:40:56;29.87;;;10.17;;
19830;SDS011;10076;52.008;4.708;2023-02-18T02:43:40;33.00;;;10.47;;
19830;SDS011;10076;52.008;4.708;2023-02-18T02:46:18;29.80;;;10.57;;
19830;SDS011;10076;52.008;4.708;2023-02-18T02:48:54;20.40;;;9.23;;
19830;SDS011;10076;52.008;4.708;2023-02-18T02:51:39;29.63;;;9.27;;
19830;SDS011;10076;52.008;4.708;2023-02-18T02:54:12;24.73;;;9.17;;
19830;SDS011;10076;52.008;4.708;2023-02-18T02:56:39;24.67;;;8.13;;
19830;SDS011;10076;52.008;4.708;2023-02-18T02:59:06;15.63;;;5.87;;
19830;SDS011;10076;52.008;4.708;2023-02-18T03:01:38;13.17;;;4.43;;
19830;SDS011;10076;52.008;4.708;2023-02-18T03:07:01;11.23;;;4.17;;
19830;SDS011;10076;52.008;4.708;2023-02-18T03:12:46;6.70;;;3.10;;
19830;SDS011;10076;52.008;4.708;2023-02-18T03:20:56;6.20;;;2.50;;
19830;SDS011;10076;52.008;4.708;2023-02-18T03:23:28;3.50;;;2.00;;
19830;SDS011;10076;52.008;4.708;2023-02-18T03:25:59;7.97;;;2.97;;
19830;SDS011;10076;52.008;4.708;2023-02-18T03:28:28;5.73;;;2.53;;
19830;SDS011;10076;52.008;4.708;2023-02-18T03:30:57;5.97;;;3.27;;
19830;SDS011;10076;52.008;4.708;2023-02-18T03:33:31;6.53;;;3.07;;
19830;SDS011;10076;52.008;4.708;2023-02-18T03:36:01;8.07;;;3.20;;
19830;SDS011;10076;52.008;4.708;2023-02-18T03:41:08;7.03;;;3.33;;
19830;SDS011;10076;52.008;4.708;2023-02-18T03:43:34;7.17;;;3.93;;
19830;SDS011;10076;52.008;4.708;2023-02-18T03:45:59;5.50;;;3.00;;
19830;SDS011;10076;52.008;4.708;2023-02-18T03:48:26;8.03;;;3.50;;
19830;SDS011;10076;52.008;4.708;2023-02-18T03:50:51;8.77;;;3.73;;
19830;SDS011;10076;52.008;4.708;2023-02-18T03:53:16;9.13;;;3.97;;
19830;SDS011;10076;52.008;4.708;2023-02-18T03:55:42;10.73;;;3.90;;
19830;SDS011;10076;52.008;4.708;2023-02-18T03:58:07;9.47;;;4.30;;
19830;SDS011;10076;52.008;4.708;2023-02-18T04:00:32;7.37;;;4.13;;
19830;SDS011;10076;52.008;4.708;2023-02-18T04:02:58;8.50;;;4.37;;
19830;SDS011;10076;52.008;4.708;2023-02-18T04:05:24;9.87;;;3.57;;
19830;SDS011;10076;52.008;4.708;2023-02-18T04:07:49;7.57;;;4.00;;
19830;SDS011;10076;52.008;4.708;2023-02-18T04:10:14;7.53;;;3.33;;
19830;SDS011;10076;52.008;4.708;2023-02-18T04:12:40;8.00;;;4.10;;
19830;SDS011;10076;52.008;4.708;2023-02-18T04:15:05;9.93;;;4.90;;
19830;SDS011;10076;52.008;4.708;2023-02-18T04:17:31;7.93;;;3.57;;
19830;SDS011;10076;52.008;4.708;2023-02-18T04:19:57;7.20;;;3.97;;
19830;SDS011;10076;52.008;4.708;2023-02-18T04:22:23;7.23;;;4.40;;
19830;SDS011;10076;52.008;4.708;2023-02-18T04:24:48;7.00;;;4.37;;
19830;SDS011;10076;52.008;4.708;2023-02-18T04:27:13;7.87;;;4.47;;
19830;SDS011;10076;52.008;4.708;2023-02-18T04:29:38;8.03;;;4.60;;
19830;SDS011;10076;52.008;4.708;2023-02-18T04:32:04;7.77;;;3.90;;
19830;SDS011;10076;52.008;4.708;2023-02-18T04:34:29;7.13;;;4.17;;
19830;SDS011;10076;52.008;4.708;2023-02-18T04:36:54;9.90;;;4.90;;
19830;SDS011;10076;52.008;4.708;2023-02-18T04:39:21;11.07;;;4.63;;
19830;SDS011;10076;52.008;4.708;2023-02-18T04:41:46;9.33;;;4.83;;
19830;SDS011;10076;52.008;4.708;2023-02-18T04:44:12;13.63;;;5.63;;
19830;SDS011;10076;52.008;4.708;2023-02-18T04:46:37;13.77;;;5.77;;
19830;SDS011;10076;52.008;4.708;2023-02-18T04:49:02;13.70;;;6.73;;
19830;SDS011;10076;52.008;4.708;2023-02-18T04:51:28;11.70;;;5.43;;
19830;SDS011;10076;52.008;4.708;2023-02-18T04:53:53;15.40;;;6.30;;
19830;SDS011;10076;52.008;4.708;2023-02-18T04:56:18;14.43;;;6.97;;
19830;SDS011;10076;52.008;4.708;2023-02-18T04:58:44;11.53;;;4.93;;
19830;SDS011;10076;52.008;4.708;2023-02-18T05:01:10;10.33;;;6.23;;
19830;SDS011;10076;52.008;4.708;2023-02-18T05:03:35;16.70;;;7.17;;
19830;SDS011;10076;52.008;4.708;2023-02-18T05:06:00;9.20;;;5.30;;
19830;SDS011;10076;52.008;4.708;2023-02-18T05:08:25;16.07;;;5.93;;
19830;SDS011;10076;52.008;4.708;2023-02-18T05:10:51;9.77;;;5.27;;
19830;SDS011;10076;52.008;4.708;2023-02-18T05:13:16;14.03;;;5.87;;
19830;SDS011;10076;52.008;4.708;2023-02-18T05:15:42;19.97;;;7.30;;
19830;SDS011;10076;52.008;4.708;2023-02-18T05:18:07;14.90;;;5.93;;
19830;SDS011;10076;52.008;4.708;2023-02-18T05:20:32;13.50;;;5.60;;
19830;SDS011;10076;52.008;4.708;2023-02-18T05:22:58;19.77;;;6.10;;
19830;SDS011;10076;52.008;4.708;2023-02-18T05:25:24;11.60;;;6.07;;
19830;SDS011;10076;52.008;4.708;2023-02-18T05:27:49;11.97;;;6.13;;
19830;SDS011;10076;52.008;4.708;2023-02-18T05:30:14;14.70;;;6.57;;
19830;SDS011;10076;52.008;4.708;2023-02-18T05:32:40;12.67;;;6.03;;
19830;SDS011;10076;52.008;4.708;2023-02-18T05:35:05;16.23;;;6.87;;
19830;SDS011;10076;52.008;4.708;2023-02-18T05:37:31;15.20;;;5.90;;
19830;SDS011;10076;52.008;4.708;2023-02-18T05:39:56;12.27;;;5.87;;
19830;SDS011;10076;52.008;4.708;2023-02-18T05:42:22;14.30;;;5.87;;
19830;SDS011;10076;52.008;4.708;2023-02-18T05:44:47;11.97;;;5.77;;
19830;SDS011;10076;52.008;4.708;2023-02-18T05:47:13;18.47;;;8.07;;
19830;SDS011;10076;52.008;4.708;2023-02-18T05:49:39;19.20;;;6.90;;
19830;SDS011;10076;52.008;4.708;2023-02-18T05:52:06;19.37;;;6.63;;
19830;SDS011;10076;52.008;4.708;2023-02-18T05:54:32;14.30;;;6.17;;
19830;SDS011;10076;52.008;4.708;2023-02-18T05:56:58;16.67;;;6.47;;
19830;SDS011;10076;52.008;4.708;2023-02-18T05:59:24;14.20;;;6.60;;
19830;SDS011;10076;52.008;4.708;2023-02-18T06:01:49;13.90;;;6.40;;
19830;SDS011;10076;52.008;4.708;2023-02-18T06:04:15;20.17;;;7.50;;
19830;SDS011;10076;52.008;4.708;2023-02-18T06:06:40;14.30;;;6.70;;
19830;SDS011;10076;52.008;4.708;2023-02-18T06:09:07;17.03;;;6.57;;
19830;SDS011;10076;52.008;4.708;2023-02-18T06:11:33;19.50;;;7.17;;
19830;SDS011;10076;52.008;4.708;2023-02-18T06:13:59;15.00;;;6.73;;
19830;SDS011;10076;52.008;4.708;2023-02-18T06:16:25;24.07;;;7.40;;
19830;SDS011;10076;52.008;4.708;2023-02-18T06:18:50;17.23;;;7.10;;
19830;SDS011;10076;52.008;4.708;2023-02-18T06:21:15;15.10;;;6.27;;
19830;SDS011;10076;52.008;4.708;2023-02-18T06:23:41;14.20;;;6.33;;
19830;SDS011;10076;52.008;4.708;2023-02-18T06:26:06;17.40;;;6.17;;
19830;SDS011;10076;52.008;4.708;2023-02-18T06:28:31;11.50;;;5.50;;
19830;SDS011;10076;52.008;4.708;2023-02-18T06:30:57;17.60;;;5.57;;
19830;SDS011;10076;52.008;4.708;2023-02-18T06:33:22;16.47;;;5.33;;
19830;SDS011;10076;52.008;4.708;2023-02-18T06:35:51;9.07;;;4.53;;
19830;SDS011;10076;52.008;4.708;2023-02-18T06:38:19;18.30;;;5.10;;
19830;SDS011;10076;52.008;4.708;2023-02-18T06:40:45;13.47;;;4.43;;
19830;SDS011;10076;52.008;4.708;2023-02-18T06:43:11;21.00;;;6.00;;
19830;SDS011;10076;52.008;4.708;2023-02-18T06:45:37;12.50;;;4.60;;
19830;SDS011;10076;52.008;4.708;2023-02-18T06:48:03;11.20;;;4.27;;
19830;SDS011;10076;52.008;4.708;2023-02-18T06:50:28;14.20;;;5.40;;
19830;SDS011;10076;52.008;4.708;2023-02-18T06:52:53;11.20;;;4.37;;
19830;SDS011;10076;52.008;4.708;2023-02-18T06:55:19;10.27;;;5.23;;
19830;SDS011;10076;52.008;4.708;2023-02-18T06:57:44;14.73;;;4.43;;
19830;SDS011;10076;52.008;4.708;2023-02-18T07:00:09;10.17;;;4.30;;
19830;SDS011;10076;52.008;4.708;2023-02-18T07:02:35;13.43;;;4.47;;
19830;SDS011;10076;52.008;4.708;2023-02-18T07:05:00;13.37;;;5.43;;
19830;SDS011;10076;52.008;4.708;2023-02-18T07:07:25;13.73;;;4.03;;
19830;SDS011;10076;52.008;4.708;2023-02-18T07:09:51;13.37;;;3.83;;
19830;SDS011;10076;52.008;4.708;2023-02-18T07:12:16;13.53;;;3.50;;
19830;SDS011;10076;52.008;4.708;2023-02-18T07:14:41;12.67;;;3.10;;
19830;SDS011;10076;52.008;4.708;2023-02-18T07:17:07;14.03;;;3.67;;
19830;SDS011;10076;52.008;4.708;2023-02-18T07:19:32;14.00;;;3.73;;
19830;SDS011;10076;52.008;4.708;2023-02-18T07:21:57;10.13;;;2.50;;
19830;SDS011;10076;52.008;4.708;2023-02-18T07:24:23;8.20;;;2.17;;
19830;SDS011;10076;52.008;4.708;2023-02-18T07:26:48;9.40;;;1.87;;
19830;SDS011;10076;52.008;4.708;2023-02-18T07:29:14;7.67;;;2.70;;
19830;SDS011;10076;52.008;4.708;2023-02-18T07:31:39;9.80;;;1.80;;
19830;SDS011;10076;52.008;4.708;2023-02-18T07:34:04;8.50;;;2.10;;
19830;SDS011;10076;52.008;4.708;2023-02-18T07:36:30;4.47;;;1.87;;
19830;SDS011;10076;52.008;4.708;2023-02-18T07:38:55;8.43;;;1.70;;
19830;SDS011;10076;52.008;4.708;2023-02-18T07:41:21;10.73;;;1.70;;
19830;SDS011;10076;52.008;4.708;2023-02-18T07:43:47;4.53;;;2.13;;
19830;SDS011;10076;52.008;4.708;2023-02-18T07:46:13;6.57;;;2.70;;
19830;SDS011;10076;52.008;4.708;2023-02-18T07:48:38;9.07;;;1.50;;
19830;SDS011;10076;52.008;4.708;2023-02-18T07:51:04;4.03;;;1.50;;
19830;SDS011;10076;52.008;4.708;2023-02-18T07:53:31;5.23;;;2.00;;
19830;SDS011;10076;52.008;4.708;2023-02-18T07:55:59;5.50;;;1.67;;
19830;SDS011;10076;52.008;4.708;2023-02-18T07:58:26;7.10;;;1.77;;
19830;SDS011;10076;52.008;4.708;2023-02-18T08:00:53;13.67;;;1.80;;
19830;SDS011;10076;52.008;4.708;2023-02-18T08:03:20;14.07;;;2.23;;
19830;SDS011;10076;52.008;4.708;2023-02-18T08:05:47;2.77;;;1.20;;
19830;SDS011;10076;52.008;4.708;2023-02-18T08:08:14;7.67;;;2.03;;
19830;SDS011;10076;52.008;4.708;2023-02-18T08:10:41;3.67;;;1.43;;
19830;SDS011;10076;52.008;4.708;2023-02-18T08:13:07;3.23;;;1.47;;
19830;SDS011;10076;52.008;4.708;2023-02-18T08:15:33;3.73;;;1.30;;
19830;SDS011;10076;52.008;4.708;2023-02-18T08:17:58;8.90;;;1.60;;
19830;SDS011;10076;52.008;4.708;2023-02-18T08:20:24;3.60;;;1.87;;
19830;SDS011;10076;52.008;4.708;2023-02-18T08:22:49;8.40;;;1.70;;
19830;SDS011;10076;52.008;4.708;2023-02-18T08:25:15;5.07;;;0.70;;
19830;SDS011;10076;52.008;4.708;2023-02-18T08:27:40;7.17;;;1.53;;
19830;SDS011;10076;52.008;4.708;2023-02-18T08:30:06;5.50;;;1.47;;
19830;SDS011;10076;52.008;4.708;2023-02-18T08:32:32;2.90;;;1.20;;
19830;SDS011;10076;52.008;4.708;2023-02-18T08:34:57;9.70;;;1.87;;
19830;SDS011;10076;52.008;4.708;2023-02-18T08:37:22;6.53;;;1.20;;
19830;SDS011;10076;52.008;4.708;2023-02-18T08:39:48;5.60;;;1.37;;
19830;SDS011;10076;52.008;4.708;2023-02-18T08:42:13;4.20;;;1.33;;
19830;SDS011;10076;52.008;4.708;2023-02-18T08:44:39;5.17;;;1.73;;
19830;SDS011;10076;52.008;4.708;2023-02-18T08:47:04;5.63;;;1.80;;
19830;SDS011;10076;52.008;4.708;2023-02-18T08:49:29;4.00;;;1.60;;
19830;SDS011;10076;52.008;4.708;2023-02-18T08:51:55;10.10;;;1.37;;
19830;SDS011;10076;52.008;4.708;2023-02-18T08:54:20;2.30;;;1.33;;
19830;SDS011;10076;52.008;4.708;2023-02-18T08:56:45;7.43;;;1.77;;
19830;SDS011;10076;52.008;4.708;2023-02-18T08:59:11;11.17;;;2.00;;
19830;SDS011;10076;52.008;4.708;2023-02-18T09:01:36;4.60;;;1.63;;
19830;SDS011;10076;52.008;4.708;2023-02-18T09:04:01;4.10;;;1.20;;
19830;SDS011;10076;52.008;4.708;2023-02-18T09:06:27;3.77;;;1.20;;
19830;SDS011;10076;52.008;4.708;2023-02-18T09:08:52;10.17;;;1.70;;
19830;SDS011;10076;52.008;4.708;2023-02-18T09:11:18;10.23;;;1.50;;
19830;SDS011;10076;52.008;4.708;2023-02-18T09:13:44;9.63;;;1.57;;
19830;SDS011;10076;52.008;4.708;2023-02-18T09:16:14;8.93;;;1.73;;
19830;SDS011;10076;52.008;4.708;2023-02-18T09:18:44;6.37;;;1.60;;
19830;SDS011;10076;52.008;4.708;2023-02-18T09:21:10;7.70;;;1.70;;
19830;SDS011;10076;52.008;4.708;2023-02-18T09:23:37;6.43;;;1.50;;
19830;SDS011;10076;52.008;4.708;2023-02-18T09:26:07;3.90;;;1.70;;
19830;SDS011;10076;52.008;4.708;2023-02-18T09:28:36;5.90;;;1.10;;
19830;SDS011;10076;52.008;4.708;2023-02-18T09:31:05;6.50;;;2.00;;
19830;SDS011;10076;52.008;4.708;2023-02-18T09:33:35;8.63;;;1.60;;
19830;SDS011;10076;52.008;4.708;2023-02-18T09:36:01;9.33;;;1.20;;
19830;SDS011;10076;52.008;4.708;2023-02-18T09:38:27;7.10;;;2.43;;
19830;SDS011;10076;52.008;4.708;2023-02-18T09:40:52;3.30;;;1.10;;
19830;SDS011;10076;52.008;4.708;2023-02-18T09:43:29;4.57;;;1.70;;
19830;SDS011;10076;52.008;4.708;2023-02-18T09:45:58;5.03;;;1.57;;
19830;SDS011;10076;52.008;4.708;2023-02-18T09:48:27;7.70;;;1.50;;
19830;SDS011;10076;52.008;4.708;2023-02-18T09:50:55;7.90;;;1.70;;
19830;SDS011;10076;52.008;4.708;2023-02-18T09:53:21;6.13;;;1.80;;
19830;SDS011;10076;52.008;4.708;2023-02-18T09:55:48;6.83;;;1.17;;
19830;SDS011;10076;52.008;4.708;2023-02-18T09:58:33;6.37;;;1.50;;
19830;SDS011;10076;52.008;4.708;2023-02-18T10:01:21;6.30;;;1.30;;
19830;SDS011;10076;52.008;4.708;2023-02-18T10:03:49;6.60;;;1.47;;
19830;SDS011;10076;52.008;4.708;2023-02-18T10:06:16;9.37;;;1.30;;
19830;SDS011;10076;52.008;4.708;2023-02-18T10:08:48;6.00;;;1.80;;
19830;SDS011;10076;52.008;4.708;2023-02-18T10:11:17;9.53;;;1.83;;
19830;SDS011;10076;52.008;4.708;2023-02-18T10:13:48;10.23;;;1.50;;
19830;SDS011;10076;52.008;4.708;2023-02-18T10:16:15;5.60;;;1.50;;
19830;SDS011;10076;52.008;4.708;2023-02-18T10:18:43;7.87;;;1.37;;
19830;SDS011;10076;52.008;4.708;2023-02-18T10:21:46;4.43;;;1.33;;
19830;SDS011;10076;52.008;4.708;2023-02-18T10:26:42;6.83;;;2.60;;
19830;SDS011;10076;52.008;4.708;2023-02-18T10:29:18;5.97;;;1.20;;
19830;SDS011;10076;52.008;4.708;2023-02-18T10:31:55;8.37;;;2.20;;
19830;SDS011;10076;52.008;4.708;2023-02-18T10:36:57;7.60;;;1.50;;
19830;SDS011;10076;52.008;4.708;2023-02-18T10:39:40;5.17;;;1.30;;
19830;SDS011;10076;52.008;4.708;2023-02-18T10:42:11;6.90;;;1.07;;
19830;SDS011;10076;52.008;4.708;2023-02-18T10:45:10;3.67;;;1.20;;
19830;SDS011;10076;52.008;4.708;2023-02-18T10:50:43;11.50;;;2.00;;
19830;SDS011;10076;52.008;4.708;2023-02-18T10:53:11;3.70;;;2.10;;
19830;SDS011;10076;52.008;4.708;2023-02-18T10:55:55;14.00;;;2.37;;
19830;SDS011;10076;52.008;4.708;2023-02-18T11:01:05;8.33;;;1.57;;
19830;SDS011;10076;52.008;4.708;2023-02-18T11:03:38;9.83;;;1.60;;
19830;SDS011;10076;52.008;4.708;2023-02-18T11:06:15;2.60;;;1.23;;
19830;SDS011;10076;52.008;4.708;2023-02-18T11:08:46;6.17;;;1.87;;
19830;SDS011;10076;52.008;4.708;2023-02-18T11:11:15;1.83;;;1.13;;
19830;SDS011;10076;52.008;4.708;2023-02-18T11:13:51;19.03;;;2.47;;
19830;SDS011;10076;52.008;4.708;2023-02-18T11:16:20;7.43;;;2.70;;
19830;SDS011;10076;52.008;4.708;2023-02-18T11:18:46;6.83;;;1.70;;
19830;SDS011;10076;52.008;4.708;2023-02-18T11:21:29;7.20;;;1.57;;
19830;SDS011;10076;52.008;4.708;2023-02-18T11:24:05;8.50;;;1.50;;
19830;SDS011;10076;52.008;4.708;2023-02-18T11:26:35;7.10;;;1.63;;
19830;SDS011;10076;52.008;4.708;2023-02-18T11:29:07;9.23;;;2.10;;
19830;SDS011;10076;52.008;4.708;2023-02-18T11:31:44;4.20;;;1.50;;
19830;SDS011;10076;52.008;4.708;2023-02-18T11:34:17;5.50;;;1.37;;
19830;SDS011;10076;52.008;4.708;2023-02-18T11:36:46;5.97;;;1.20;;
19830;SDS011;10076;52.008;4.708;2023-02-18T11:41:45;3.93;;;1.50;;
19830;SDS011;10076;52.008;4.708;2023-02-18T11:44:55;6.77;;;1.43;;
19830;SDS011;10076;52.008;4.708;2023-02-18T11:47:05;3.20;;;1.20;;
19830;SDS011;10076;52.008;4.708;2023-02-18T11:49:36;5.03;;;1.60;;
19830;SDS011;10076;52.008;4.708;2023-02-18T11:52:13;5.07;;;1.27;;
19830;SDS011;10076;52.008;4.708;2023-02-18T11:55:05;7.07;;;1.10;;
19830;SDS011;10076;52.008;4.708;2023-02-18T11:57:33;7.30;;;1.67;;
19830;SDS011;10076;52.008;4.708;2023-02-18T12:00:02;10.20;;;1.17;;
19830;SDS011;10076;52.008;4.708;2023-02-18T12:02:33;6.23;;;1.40;;
19830;SDS011;10076;52.008;4.708;2023-02-18T12:05:04;6.03;;;1.63;;
19830;SDS011;10076;52.008;4.708;2023-02-18T12:10:24;6.43;;;1.40;;
19830;SDS011;10076;52.008;4.708;2023-02-18T12:24:10;8.47;;;1.67;;
19830;SDS011;10076;52.008;4.708;2023-02-18T12:27:04;10.25;;;1.50;;
19830;SDS011;10076;52.008;4.708;2023-02-18T12:46:10;5.22;;;1.45;;
19830;SDS011;10076;52.008;4.708;2023-02-18T12:51:24;3.53;;;1.67;;
19830;SDS011;10076;52.008;4.708;2023-02-18T12:59:40;5.57;;;1.38;;
19830;SDS011;10076;52.008;4.708;2023-02-18T13:05:43;2.38;;;1.38;;
19830;SDS011;10076;52.008;4.708;2023-02-18T13:09:08;7.68;;;1.70;;
19830;SDS011;10076;52.008;4.708;2023-02-18T13:14:00;4.68;;;1.50;;
19830;SDS011;10076;52.008;4.708;2023-02-18T13:16:33;7.03;;;1.52;;
19830;SDS011;10076;52.008;4.708;2023-02-18T13:19:06;8.17;;;1.93;;
19830;SDS011;10076;52.008;4.708;2023-02-18T13:21:42;4.43;;;1.20;;
19830;SDS011;10076;52.008;4.708;2023-02-18T13:24:11;3.95;;;1.40;;
19830;SDS011;10076;52.008;4.708;2023-02-18T13:26:41;7.10;;;1.33;;
19830;SDS011;10076;52.008;4.708;2023-02-18T13:29:30;3.83;;;1.27;;
19830;SDS011;10076;52.008;4.708;2023-02-18T13:32:12;6.63;;;1.40;;
19830;SDS011;10076;52.008;4.708;2023-02-18T13:34:54;2.27;;;1.30;;
19830;SDS011;10076;52.008;4.708;2023-02-18T13:37:34;7.18;;;1.42;;
19830;SDS011;10076;52.008;4.708;2023-02-18T13:40:24;4.85;;;1.48;;
19830;SDS011;10076;52.008;4.708;2023-02-18T13:42:54;3.88;;;1.42;;
19830;SDS011;10076;52.008;4.708;2023-02-18T13:45:39;6.65;;;1.48;;
19830;SDS011;10076;52.008;4.708;2023-02-18T13:48:09;7.43;;;1.40;;
19830;SDS011;10076;52.008;4.708;2023-02-18T13:50:50;10.13;;;1.23;;
19830;SDS011;10076;52.008;4.708;2023-02-18T13:53:21;5.65;;;1.55;;
19830;SDS011;10076;52.008;4.708;2023-02-18T13:55:52;6.97;;;1.58;;
19830;SDS011;10076;52.008;4.708;2023-02-18T13:58:22;2.63;;;1.45;;
19830;SDS011;10076;52.008;4.708;2023-02-18T14:00:54;6.88;;;1.45;;
19830;SDS011;10076;52.008;4.708;2023-02-18T14:06:33;7.35;;;1.38;;
19830;SDS011;10076;52.008;4.708;2023-02-18T14:11:39;5.80;;;1.48;;
19830;SDS011;10076;52.008;4.708;2023-02-18T14:20:21;7.45;;;1.88;;
19830;SDS011;10076;52.008;4.708;2023-02-18T14:22:44;8.77;;;1.60;;
19830;SDS011;10076;52.008;4.708;2023-02-18T14:25:20;14.10;;;2.13;;
19830;SDS011;10076;52.008;4.708;2023-02-18T14:27:47;4.10;;;1.42;;
19830;SDS011;10076;52.008;4.708;2023-02-18T14:32:47;6.57;;;2.13;;
19830;SDS011;10076;52.008;4.708;2023-02-18T14:35:24;7.40;;;1.40;;
19830;SDS011;10076;52.008;4.708;2023-02-18T14:40:50;7.22;;;1.70;;
19830;SDS011;10076;52.008;4.708;2023-02-18T14:46:21;2.73;;;1.43;;
19830;SDS011;10076;52.008;4.708;2023-02-18T14:51:30;5.20;;;1.63;;
19830;SDS011;10076;52.008;4.708;2023-02-18T14:54:01;1.63;;;1.10;;
19830;SDS011;10076;52.008;4.708;2023-02-18T14:56:29;9.70;;;1.77;;
19830;SDS011;10076;52.008;4.708;2023-02-18T14:58:57;7.73;;;1.77;;
19830;SDS011;10076;52.008;4.708;2023-02-18T15:01:33;8.17;;;2.60;;
19830;SDS011;10076;52.008;4.708;2023-02-18T15:03:59;9.90;;;1.97;;
19830;SDS011;10076;52.008;4.708;2023-02-18T15:08:59;9.88;;;1.90;;
19830;SDS011;10076;52.008;4.708;2023-02-18T15:11:31;12.07;;;2.57;;
19830;SDS011;10076;52.008;4.708;2023-02-18T15:14:08;2.13;;;1.53;;
19830;SDS011;10076;52.008;4.708;2023-02-18T15:16:38;11.85;;;2.90;;
19830;SDS011;10076;52.008;4.708;2023-02-18T15:19:05;5.83;;;1.20;;
19830;SDS011;10076;52.008;4.708;2023-02-18T15:21:38;6.40;;;1.40;;
19830;SDS011;10076;52.008;4.708;2023-02-18T15:26:42;8.60;;;2.33;;
19830;SDS011;10076;52.008;4.708;2023-02-18T15:29:23;6.97;;;1.67;;
19830;SDS011;10076;52.008;4.708;2023-02-18T15:31:50;9.10;;;1.53;;
19830;SDS011;10076;52.008;4.708;2023-02-18T15:34:23;4.50;;;1.47;;
19830;SDS011;10076;52.008;4.708;2023-02-18T15:36:55;7.17;;;2.10;;
19830;SDS011;10076;52.008;4.708;2023-02-18T15:39:21;13.33;;;2.47;;
19830;SDS011;10076;52.008;4.708;2023-02-18T15:41:51;9.67;;;2.83;;
19830;SDS011;10076;52.008;4.708;2023-02-18T15:44:22;8.40;;;1.57;;
19830;SDS011;10076;52.008;4.708;2023-02-18T15:46:50;9.37;;;2.50;;
19830;SDS011;10076;52.008;4.708;2023-02-18T15:49:18;7.03;;;1.70;;
19830;SDS011;10076;52.008;4.708;2023-02-18T15:51:47;9.03;;;1.80;;
19830;SDS011;10076;52.008;4.708;2023-02-18T15:54:14;7.47;;;1.80;;
19830;SDS011;10076;52.008;4.708;2023-02-18T15:56:43;8.17;;;1.83;;
19830;SDS011;10076;52.008;4.708;2023-02-18T15:59:15;10.50;;;1.90;;
19830;SDS011;10076;52.008;4.708;2023-02-18T16:01:47;9.60;;;2.73;;
19830;SDS011;10076;52.008;4.708;2023-02-18T16:04:15;4.27;;;1.57;;
19830;SDS011;10076;52.008;4.708;2023-02-18T16:07:00;5.97;;;1.80;;
19830;SDS011;10076;52.008;4.708;2023-02-18T16:09:40;10.17;;;1.73;;
19830;SDS011;10076;52.008;4.708;2023-02-18T16:12:20;8.43;;;1.80;;
19830;SDS011;10076;52.008;4.708;2023-02-18T16:14:52;4.43;;;1.67;;
19830;SDS011;10076;52.008;4.708;2023-02-18T16:17:19;13.37;;;1.77;;
19830;SDS011;10076;52.008;4.708;2023-02-18T16:19:51;9.23;;;2.13;;
19830;SDS011;10076;52.008;4.708;2023-02-18T16:22:21;8.23;;;1.80;;
19830;SDS011;10076;52.008;4.708;2023-02-18T16:24:47;7.90;;;1.80;;
19830;SDS011;10076;52.008;4.708;2023-02-18T16:27:16;6.53;;;1.73;;
19830;SDS011;10076;52.008;4.708;2023-02-18T16:29:41;5.57;;;2.27;;
19830;SDS011;10076;52.008;4.708;2023-02-18T16:32:07;5.67;;;1.60;;
19830;SDS011;10076;52.008;4.708;2023-02-18T16:34:33;8.33;;;1.53;;
19830;SDS011;10076;52.008;4.708;2023-02-18T16:36:59;13.13;;;2.20;;
19830;SDS011;10076;52.008;4.708;2023-02-18T16:39:44;9.10;;;1.77;;
19830;SDS011;10076;52.008;4.708;2023-02-18T16:42:10;7.77;;;2.07;;
19830;SDS011;10076;52.008;4.708;2023-02-18T16:44:37;5.43;;;1.90;;
19830;SDS011;10076;52.008;4.708;2023-02-18T16:47:03;10.20;;;2.63;;
19830;SDS011;10076;52.008;4.708;2023-02-18T16:49:29;5.90;;;2.27;;
19830;SDS011;10076;52.008;4.708;2023-02-18T16:51:55;10.77;;;2.20;;